sensor_id;sensor_type;location;lat;lon;timestamp;pressure;altitude;pressure_sealevel;temperature;humidity
15794;BME280;7999;51.208;4.244;2023-02-13T00:00:23;103650.88;;;7.33;100.00
15794;BME280;7999;51.208;4.244;2023-02-13T00:02:50;103643.56;;;7.26;100.00
15794;BME280;7999;51.208;4.244;2023-02-13T00:05:17;103633.91;;;7.08;100.00
15794;BME280;7999;51.208;4.244;2023-02-13T00:07:43;103637.47;;;7.10;100.00
15794;BME280;7999;51.208;4.244;2023-02-13T00:10:12;103637.06;;;7.18;100.00
15794;BME280;7999;51.208;4.244;2023-02-13T00:12:38;103631.78;;;7.16;100.00
15794;BME280;7999;51.208;4.244;2023-02-13T00:15:06;103629.44;;;7.06;100.00
15794;BME280;7999;51.208;4.244;2023-02-13T00:17:33;103632.50;;;7.13;100.00
15794;BME280;7999;51.208;4.244;2023-02-13T00:19:59;103626.44;;;6.98;100.00
15794;BME280;7999;51.208;4.244;2023-02-13T00:22:26;103623.47;;;7.07;100.00
15794;BME280;7999;51.208;4.244;2023-02-13T00:24:53;103627.88;;;7.23;100.00
15794;BME280;7999;51.208;4.244;2023-02-13T00:27:21;103629.81;;;7.12;100.00
15794;BME280;7999;51.208;4.244;2023-02-13T00:29:48;103623.22;;;7.02;100.00
15794;BME280;7999;51.208;4.244;2023-02-13T00:32:14;103623.84;;;6.98;100.00
15794;BME280;7999;51.208;4.244;2023-02-13T00:34:41;103623.66;;;6.95;100.00
15794;BME280;7999;51.208;4.244;2023-02-13T00:37:08;103617.50;;;6.93;100.00
15794;BME280;7999;51.208;4.244;2023-02-13T00:39:35;103623.94;;;6.85;100.00
15794;BME280;7999;51.208;4.244;2023-02-13T00:42:01;103627.47;;;6.72;100.00
15794;BME280;7999;51.208;4.244;2023-02-13T00:44:30;103627.81;;;6.78;100.00
15794;BME280;7999;51.208;4.244;2023-02-13T00:46:56;103626.75;;;6.75;100.00
15794;BME280;7999;51.208;4.244;2023-02-13T00:49:24;103621.47;;;6.59;100.00
15794;BME280;7999;51.208;4.244;2023-02-13T00:51:50;103620.09;;;6.50;100.00
15794;BME280;7999;51.208;4.244;2023-02-13T00:54:18;103628.91;;;6.39;100.00
15794;BME280;7999;51.208;4.244;2023-02-13T00:56:44;103628.44;;;6.32;100.00
15794;BME280;7999;51.208;4.244;2023-02-13T00:59:12;103628.94;;;6.26;100.00
15794;BME280;7999;51.208;4.244;2023-02-13T01:01:40;103633.91;;;6.23;100.00
15794;BME280;7999;51.208;4.244;2023-02-13T01:04:06;103625.16;;;6.21;100.00
15794;BME280;7999;51.208;4.244;2023-02-13T01:06:33;103623.38;;;6.20;100.00
15794;BME280;7999;51.208;4.244;2023-02-13T01:09:03;103631.13;;;6.20;100.00
15794;BME280;7999;51.208;4.244;2023-02-13T01:11:30;103621.59;;;6.19;100.00
15794;BME280;7999;51.208;4.244;2023-02-13T01:13:59;103628.41;;;6.04;100.00
15794;BME280;7999;51.208;4.244;2023-02-13T01:16:26;103636.03;;;6.02;100.00
15794;BME280;7999;51.208;4.244;2023-02-13T01:18:55;103634.47;;;6.04;100.00
15794;BME280;7999;51.208;4.244;2023-02-13T01:21:22;103632.19;;;5.96;100.00
15794;BME280;7999;51.208;4.244;2023-02-13T01:23:51;103638.13;;;5.95;100.00
15794;BME280;7999;51.208;4.244;2023-02-13T01:26:19;103633.25;;;5.73;100.00
15794;BME280;7999;51.208;4.244;2023-02-13T01:28:50;103630.91;;;5.63;100.00
15794;BME280;7999;51.208;4.244;2023-02-13T01:31:17;103630.22;;;5.52;100.00
15794;BME280;7999;51.208;4.244;2023-02-13T01:33:44;103630.00;;;5.36;100.00
15794;BME280;7999;51.208;4.244;2023-02-13T01:36:12;103628.81;;;5.44;100.00
15794;BME280;7999;51.208;4.244;2023-02-13T01:38:39;103614.81;;;5.27;100.00
15794;BME280;7999;51.208;4.244;2023-02-13T01:41:06;103624.03;;;5.23;100.00
15794;BME280;7999;51.208;4.244;2023-02-13T01:43:44;103633.03;;;5.17;100.00
15794;BME280;7999;51.208;4.244;2023-02-13T01:46:11;103629.56;;;5.03;100.00
15794;BME280;7999;51.208;4.244;2023-02-13T01:48:38;103622.31;;;4.97;100.00
15794;BME280;7999;51.208;4.244;2023-02-13T01:51:06;103630.28;;;4.89;100.00
15794;BME280;7999;51.208;4.244;2023-02-13T01:53:36;103632.38;;;4.81;100.00
15794;BME280;7999;51.208;4.244;2023-02-13T01:56:08;103630.66;;;4.69;100.00
15794;BME280;7999;51.208;4.244;2023-02-13T01:58:37;103629.22;;;4.60;100.00
15794;BME280;7999;51.208;4.244;2023-02-13T02:01:05;103629.22;;;4.60;100.00
15794;BME280;7999;51.208;4.244;2023-02-13T02:03:34;103631.16;;;4.51;100.00
15794;BME280;7999;51.208;4.244;2023-02-13T02:06:10;103639.00;;;4.53;100.00
15794;BME280;7999;51.208;4.244;2023-02-13T02:08:39;103630.34;;;4.39;100.00
15794;BME280;7999;51.208;4.244;2023-02-13T02:11:08;103634.34;;;4.35;100.00
15794;BME280;7999;51.208;4.244;2023-02-13T02:13:37;103626.53;;;4.34;100.00
15794;BME280;7999;51.208;4.244;2023-02-13T02:16:07;103623.88;;;4.21;100.00
15794;BME280;7999;51.208;4.244;2023-02-13T02:18:34;103621.38;;;4.34;100.00
15794;BME280;7999;51.208;4.244;2023-02-13T02:21:16;103630.09;;;4.36;100.00
15794;BME280;7999;51.208;4.244;2023-02-13T02:24:16;103627.38;;;4.46;100.00
15794;BME280;7999;51.208;4.244;2023-02-13T02:32:18;103610.56;;;4.51;100.00
15794;BME280;7999;51.208;4.244;2023-02-13T02:34:50;103614.41;;;4.45;100.00
15794;BME280;7999;51.208;4.244;2023-02-13T02:37:26;103604.00;;;4.43;100.00
15794;BME280;7999;51.208;4.244;2023-02-13T02:40:02;103596.69;;;4.49;100.00
15794;BME280;7999;51.208;4.244;2023-02-13T02:42:36;103601.88;;;4.38;100.00
15794;BME280;7999;51.208;4.244;2023-02-13T02:45:07;103601.41;;;4.43;100.00
15794;BME280;7999;51.208;4.244;2023-02-13T02:47:38;103609.03;;;4.42;100.00
15794;BME280;7999;51.208;4.244;2023-02-13T02:50:30;103607.91;;;4.38;100.00
15794;BME280;7999;51.208;4.244;2023-02-13T02:53:05;103606.13;;;4.37;100.00
15794;BME280;7999;51.208;4.244;2023-02-13T02:55:37;103610.28;;;4.35;100.00
15794;BME280;7999;51.208;4.244;2023-02-13T02:58:12;103613.84;;;4.37;100.00
15794;BME280;7999;51.208;4.244;2023-02-13T03:00:59;103609.72;;;4.39;100.00
15794;BME280;7999;51.208;4.244;2023-02-13T03:03:46;103603.25;;;4.32;100.00
15794;BME280;7999;51.208;4.244;2023-02-13T03:06:32;103604.03;;;4.56;100.00
15794;BME280;7999;51.208;4.244;2023-02-13T03:09:03;103602.63;;;4.48;100.00
15794;BME280;7999;51.208;4.244;2023-02-13T03:12:04;103604.78;;;4.42;100.00
15794;BME280;7999;51.208;4.244;2023-02-13T03:14:49;103604.34;;;4.36;100.00
15794;BME280;7999;51.208;4.244;2023-02-13T03:17:16;103610.34;;;4.48;100.00
15794;BME280;7999;51.208;4.244;2023-02-13T03:20:11;103597.97;;;4.31;100.00
15794;BME280;7999;51.208;4.244;2023-02-13T03:23:01;103598.56;;;4.27;100.00
15794;BME280;7999;51.208;4.244;2023-02-13T03:25:29;103602.56;;;4.35;100.00
15794;BME280;7999;51.208;4.244;2023-02-13T03:28:03;103598.63;;;4.15;100.00
15794;BME280;7999;51.208;4.244;2023-02-13T03:30:53;103596.94;;;4.16;100.00
15794;BME280;7999;51.208;4.244;2023-02-13T03:33:26;103595.47;;;4.19;100.00
15794;BME280;7999;51.208;4.244;2023-02-13T03:36:00;103591.81;;;4.04;100.00
15794;BME280;7999;51.208;4.244;2023-02-13T03:38:49;103598.63;;;4.03;100.00
15794;BME280;7999;51.208;4.244;2023-02-13T03:41:18;103603.34;;;3.97;100.00
15794;BME280;7999;51.208;4.244;2023-02-13T03:43:50;103603.81;;;3.80;100.00
15794;BME280;7999;51.208;4.244;2023-02-13T03:46:18;103611.22;;;3.87;100.00
15794;BME280;7999;51.208;4.244;2023-02-13T03:48:45;103603.59;;;3.77;100.00
15794;BME280;7999;51.208;4.244;2023-02-13T03:51:33;103610.78;;;3.69;100.00
15794;BME280;7999;51.208;4.244;2023-02-13T03:54:02;103607.44;;;3.59;100.00
15794;BME280;7999;51.208;4.244;2023-02-13T03:56:30;103616.38;;;3.52;100.00
15794;BME280;7999;51.208;4.244;2023-02-13T03:59:18;103614.16;;;3.57;100.00
15794;BME280;7999;51.208;4.244;2023-02-13T04:01:47;103615.38;;;3.50;100.00
15794;BME280;7999;51.208;4.244;2023-02-13T04:04:18;103613.50;;;3.36;100.00
15794;BME280;7999;51.208;4.244;2023-02-13T04:06:49;103620.38;;;3.25;100.00
15794;BME280;7999;51.208;4.244;2023-02-13T04:09:17;103613.25;;;3.21;100.00
15794;BME280;7999;51.208;4.244;2023-02-13T04:11:46;103608.66;;;3.17;100.00
15794;BME280;7999;51.208;4.244;2023-02-13T04:14:18;103608.31;;;3.13;100.00
15794;BME280;7999;51.208;4.244;2023-02-13T04:16:46;103601.84;;;3.06;100.00
15794;BME280;7999;51.208;4.244;2023-02-13T04:19:15;103609.22;;;3.13;100.00
15794;BME280;7999;51.208;4.244;2023-02-13T04:21:42;103610.34;;;3.17;100.00
15794;BME280;7999;51.208;4.244;2023-02-13T04:24:10;103610.59;;;3.31;100.00
15794;BME280;7999;51.208;4.244;2023-02-13T04:26:37;103611.69;;;3.35;100.00
15794;BME280;7999;51.208;4.244;2023-02-13T04:29:05;103612.81;;;3.38;100.00
15794;BME280;7999;51.208;4.244;2023-02-13T04:31:31;103613.69;;;3.27;100.00
15794;BME280;7999;51.208;4.244;2023-02-13T04:33:59;103615.47;;;3.28;100.00
15794;BME280;7999;51.208;4.244;2023-02-13T04:36:26;103612.91;;;3.28;100.00
15794;BME280;7999;51.208;4.244;2023-02-13T04:38:52;103613.91;;;3.19;100.00
15794;BME280;7999;51.208;4.244;2023-02-13T04:41:20;103607.53;;;3.02;100.00
15794;BME280;7999;51.208;4.244;2023-02-13T04:43:47;103611.19;;;2.94;100.00
15794;BME280;7999;51.208;4.244;2023-02-13T04:46:16;103609.63;;;2.96;100.00
15794;BME280;7999;51.208;4.244;2023-02-13T04:48:43;103605.25;;;2.83;100.00
15794;BME280;7999;51.208;4.244;2023-02-13T04:51:13;103610.72;;;2.76;100.00
15794;BME280;7999;51.208;4.244;2023-02-13T04:53:39;103607.09;;;2.62;100.00
15794;BME280;7999;51.208;4.244;2023-02-13T04:56:06;103615.09;;;2.55;100.00
15794;BME280;7999;51.208;4.244;2023-02-13T04:58:34;103614.38;;;2.46;100.00
15794;BME280;7999;51.208;4.244;2023-02-13T05:01:01;103614.63;;;2.49;100.00
15794;BME280;7999;51.208;4.244;2023-02-13T05:03:28;103609.44;;;2.37;100.00
15794;BME280;7999;51.208;4.244;2023-02-13T05:05:54;103611.66;;;2.33;100.00
15794;BME280;7999;51.208;4.244;2023-02-13T05:08:21;103608.53;;;2.37;100.00
15794;BME280;7999;51.208;4.244;2023-02-13T05:10:48;103608.94;;;2.20;100.00
15794;BME280;7999;51.208;4.244;2023-02-13T05:13:14;103607.88;;;2.17;100.00
15794;BME280;7999;51.208;4.244;2023-02-13T05:15:43;103600.19;;;2.17;100.00
15794;BME280;7999;51.208;4.244;2023-02-13T05:18:11;103603.38;;;2.25;100.00
15794;BME280;7999;51.208;4.244;2023-02-13T05:20:38;103596.69;;;2.27;100.00
15794;BME280;7999;51.208;4.244;2023-02-13T05:23:07;103599.28;;;2.39;100.00
15794;BME280;7999;51.208;4.244;2023-02-13T05:25:48;103600.28;;;2.41;100.00
15794;BME280;7999;51.208;4.244;2023-02-13T05:28:16;103600.06;;;2.38;100.00
15794;BME280;7999;51.208;4.244;2023-02-13T05:31:01;103594.38;;;2.42;100.00
15794;BME280;7999;51.208;4.244;2023-02-13T05:33:28;103603.09;;;2.44;100.00
15794;BME280;7999;51.208;4.244;2023-02-13T05:35:54;103600.72;;;2.57;100.00
15794;BME280;7999;51.208;4.244;2023-02-13T05:38:21;103597.25;;;2.57;100.00
15794;BME280;7999;51.208;4.244;2023-02-13T05:40:48;103601.16;;;2.30;100.00
15794;BME280;7999;51.208;4.244;2023-02-13T05:43:14;103601.97;;;2.18;100.00
15794;BME280;7999;51.208;4.244;2023-02-13T05:45:41;103599.34;;;2.07;100.00
15794;BME280;7999;51.208;4.244;2023-02-13T05:48:09;103603.41;;;1.93;100.00
15794;BME280;7999;51.208;4.244;2023-02-13T05:50:36;103607.47;;;2.01;100.00
15794;BME280;7999;51.208;4.244;2023-02-13T05:53:06;103599.81;;;1.91;100.00
15794;BME280;7999;51.208;4.244;2023-02-13T05:55:40;103606.50;;;1.89;100.00
15794;BME280;7999;51.208;4.244;2023-02-13T05:58:07;103601.31;;;1.77;100.00
15794;BME280;7999;51.208;4.244;2023-02-13T06:00:37;103605.53;;;1.77;100.00
15794;BME280;7999;51.208;4.244;2023-02-13T06:03:03;103600.69;;;1.70;100.00
15794;BME280;7999;51.208;4.244;2023-02-13T06:05:34;103602.75;;;1.64;100.00
15794;BME280;7999;51.208;4.244;2023-02-13T06:08:01;103603.03;;;1.67;100.00
15794;BME280;7999;51.208;4.244;2023-02-13T06:10:27;103605.84;;;1.60;100.00
15794;BME280;7999;51.208;4.244;2023-02-13T06:12:54;103609.69;;;1.65;100.00
15794;BME280;7999;51.208;4.244;2023-02-13T06:15:21;103618.00;;;1.72;100.00
15794;BME280;7999;51.208;4.244;2023-02-13T06:17:48;103620.16;;;1.78;100.00
15794;BME280;7999;51.208;4.244;2023-02-13T06:20:14;103617.50;;;1.66;100.00
15794;BME280;7999;51.208;4.244;2023-02-13T06:22:42;103611.63;;;1.57;100.00
15794;BME280;7999;51.208;4.244;2023-02-13T06:25:09;103618.19;;;1.53;100.00
15794;BME280;7999;51.208;4.244;2023-02-13T06:27:37;103620.53;;;1.40;100.00
15794;BME280;7999;51.208;4.244;2023-02-13T06:30:04;103624.75;;;1.40;100.00
15794;BME280;7999;51.208;4.244;2023-02-13T06:32:31;103621.56;;;1.42;100.00
15794;BME280;7999;51.208;4.244;2023-02-13T06:34:58;103626.94;;;1.35;100.00
15794;BME280;7999;51.208;4.244;2023-02-13T06:37:24;103628.34;;;1.32;100.00
15794;BME280;7999;51.208;4.244;2023-02-13T06:39:52;103640.38;;;1.33;100.00
15794;BME280;7999;51.208;4.244;2023-02-13T06:42:19;103639.50;;;1.32;100.00
15794;BME280;7999;51.208;4.244;2023-02-13T06:44:46;103641.94;;;1.31;100.00
15794;BME280;7999;51.208;4.244;2023-02-13T06:47:12;103642.34;;;1.25;100.00
15794;BME280;7999;51.208;4.244;2023-02-13T06:49:39;103635.66;;;1.27;100.00
15794;BME280;7999;51.208;4.244;2023-02-13T06:52:06;103641.44;;;1.24;100.00
15794;BME280;7999;51.208;4.244;2023-02-13T06:54:33;103641.97;;;1.20;100.00
15794;BME280;7999;51.208;4.244;2023-02-13T06:57:01;103640.28;;;1.21;100.00
15794;BME280;7999;51.208;4.244;2023-02-13T06:59:28;103644.78;;;1.13;100.00
15794;BME280;7999;51.208;4.244;2023-02-13T07:01:54;103653.75;;;1.18;100.00
15794;BME280;7999;51.208;4.244;2023-02-13T07:04:21;103651.06;;;1.17;100.00
15794;BME280;7999;51.208;4.244;2023-02-13T07:06:50;103648.63;;;1.18;100.00
15794;BME280;7999;51.208;4.244;2023-02-13T07:09:17;103661.53;;;1.30;100.00
15794;BME280;7999;51.208;4.244;2023-02-13T07:11:43;103658.72;;;1.27;100.00
15794;BME280;7999;51.208;4.244;2023-02-13T07:14:11;103663.09;;;1.08;100.00
15794;BME280;7999;51.208;4.244;2023-02-13T07:16:38;103663.34;;;1.01;100.00
15794;BME280;7999;51.208;4.244;2023-02-13T07:19:04;103659.13;;;1.01;100.00
15794;BME280;7999;51.208;4.244;2023-02-13T07:21:31;103665.28;;;1.03;100.00
15794;BME280;7999;51.208;4.244;2023-02-13T07:23:58;103665.41;;;1.15;100.00
15794;BME280;7999;51.208;4.244;2023-02-13T07:26:25;103663.06;;;1.28;100.00
15794;BME280;7999;51.208;4.244;2023-02-13T07:28:52;103668.22;;;1.18;100.00
15794;BME280;7999;51.208;4.244;2023-02-13T07:31:20;103670.00;;;1.09;100.00
15794;BME280;7999;51.208;4.244;2023-02-13T07:33:47;103662.59;;;1.02;100.00
15794;BME280;7999;51.208;4.244;2023-02-13T07:36:14;103672.47;;;0.87;100.00
15794;BME280;7999;51.208;4.244;2023-02-13T07:38:40;103665.91;;;1.01;100.00
15794;BME280;7999;51.208;4.244;2023-02-13T07:41:07;103667.06;;;1.04;100.00
15794;BME280;7999;51.208;4.244;2023-02-13T07:43:34;103666.56;;;0.98;100.00
15794;BME280;7999;51.208;4.244;2023-02-13T07:46:01;103669.88;;;0.97;100.00
15794;BME280;7999;51.208;4.244;2023-02-13T07:48:29;103669.13;;;0.88;100.00
15794;BME280;7999;51.208;4.244;2023-02-13T07:50:58;103674.47;;;0.81;100.00
15794;BME280;7999;51.208;4.244;2023-02-13T07:53:27;103664.50;;;0.94;100.00
15794;BME280;7999;51.208;4.244;2023-02-13T07:55:54;103670.53;;;1.05;100.00
15794;BME280;7999;51.208;4.244;2023-02-13T07:58:21;103674.13;;;0.86;100.00
15794;BME280;7999;51.208;4.244;2023-02-13T08:00:47;103665.38;;;0.74;100.00
15794;BME280;7999;51.208;4.244;2023-02-13T08:03:14;103666.44;;;0.86;100.00
15794;BME280;7999;51.208;4.244;2023-02-13T08:05:42;103671.28;;;1.04;100.00
15794;BME280;7999;51.208;4.244;2023-02-13T08:08:12;103670.16;;;1.00;100.00
15794;BME280;7999;51.208;4.244;2023-02-13T08:10:39;103676.56;;;1.15;100.00
15794;BME280;7999;51.208;4.244;2023-02-13T08:13:23;103672.06;;;1.23;100.00
15794;BME280;7999;51.208;4.244;2023-02-13T08:15:50;103682.19;;;1.01;100.00
15794;BME280;7999;51.208;4.244;2023-02-13T08:18:24;103671.06;;;1.11;100.00
15794;BME280;7999;51.208;4.244;2023-02-13T08:20:52;103677.03;;;1.32;100.00
15794;BME280;7999;51.208;4.244;2023-02-13T08:23:19;103678.47;;;1.18;100.00
15794;BME280;7999;51.208;4.244;2023-02-13T08:25:46;103680.28;;;1.19;100.00
15794;BME280;7999;51.208;4.244;2023-02-13T08:28:14;103666.56;;;1.18;100.00
15794;BME280;7999;51.208;4.244;2023-02-13T08:30:40;103668.72;;;1.44;100.00
15794;BME280;7999;51.208;4.244;2023-02-13T08:33:07;103664.03;;;1.71;100.00
15794;BME280;7999;51.208;4.244;2023-02-13T08:35:34;103670.44;;;1.76;100.00
15794;BME280;7999;51.208;4.244;2023-02-13T08:38:02;103668.88;;;1.78;100.00
15794;BME280;7999;51.208;4.244;2023-02-13T08:40:29;103664.72;;;1.90;100.00
15794;BME280;7999;51.208;4.244;2023-02-13T08:42:58;103664.81;;;1.70;100.00
15794;BME280;7999;51.208;4.244;2023-02-13T08:45:25;103667.16;;;1.99;100.00
15794;BME280;7999;51.208;4.244;2023-02-13T08:47:54;103675.06;;;2.34;100.00
15794;BME280;7999;51.208;4.244;2023-02-13T08:50:21;103677.75;;;2.57;100.00
15794;BME280;7999;51.208;4.244;2023-02-13T08:52:47;103673.97;;;2.42;100.00
15794;BME280;7999;51.208;4.244;2023-02-13T08:55:15;103674.81;;;2.31;100.00
15794;BME280;7999;51.208;4.244;2023-02-13T08:57:42;103677.28;;;2.51;100.00
15794;BME280;7999;51.208;4.244;2023-02-13T09:00:09;103672.25;;;3.08;100.00
15794;BME280;7999;51.208;4.244;2023-02-13T09:02:36;103672.84;;;3.51;100.00
15794;BME280;7999;51.208;4.244;2023-02-13T09:05:03;103665.97;;;4.21;100.00
15794;BME280;7999;51.208;4.244;2023-02-13T09:07:29;103657.81;;;4.52;100.00
15794;BME280;7999;51.208;4.244;2023-02-13T09:09:56;103659.25;;;4.60;100.00
15794;BME280;7999;51.208;4.244;2023-02-13T09:12:24;103642.56;;;5.18;100.00
15794;BME280;7999;51.208;4.244;2023-02-13T09:14:51;103641.47;;;5.01;100.00
15794;BME280;7999;51.208;4.244;2023-02-13T09:17:17;103636.50;;;5.04;100.00
15794;BME280;7999;51.208;4.244;2023-02-13T09:19:45;103636.41;;;5.03;100.00
15794;BME280;7999;51.208;4.244;2023-02-13T09:22:11;103637.25;;;5.81;100.00
15794;BME280;7999;51.208;4.244;2023-02-13T09:24:39;103633.19;;;5.58;100.00
15794;BME280;7999;51.208;4.244;2023-02-13T09:27:06;103634.75;;;6.65;100.00
15794;BME280;7999;51.208;4.244;2023-02-13T09:29:34;103619.09;;;6.76;100.00
15794;BME280;7999;51.208;4.244;2023-02-13T09:32:01;103629.97;;;6.71;100.00
15794;BME280;7999;51.208;4.244;2023-02-13T09:34:29;103626.88;;;6.48;100.00
15794;BME280;7999;51.208;4.244;2023-02-13T09:36:56;103629.19;;;6.87;100.00
15794;BME280;7999;51.208;4.244;2023-02-13T09:39:23;103634.28;;;7.29;100.00
15794;BME280;7999;51.208;4.244;2023-02-13T09:41:50;103640.00;;;7.24;100.00
15794;BME280;7999;51.208;4.244;2023-02-13T09:44:19;103624.44;;;8.15;100.00
15794;BME280;7999;51.208;4.244;2023-02-13T09:47:06;103629.84;;;8.03;100.00
15794;BME280;7999;51.208;4.244;2023-02-13T09:49:43;103623.13;;;8.54;100.00
15794;BME280;7999;51.208;4.244;2023-02-13T09:52:11;103623.19;;;8.56;100.00
15794;BME280;7999;51.208;4.244;2023-02-13T09:54:38;103627.72;;;8.44;100.00
15794;BME280;7999;51.208;4.244;2023-02-13T09:57:06;103623.66;;;9.15;100.00
15794;BME280;7999;51.208;4.244;2023-02-13T09:59:41;103619.94;;;9.28;100.00
15794;BME280;7999;51.208;4.244;2023-02-13T10:02:25;103624.28;;;9.45;100.00
15794;BME280;7999;51.208;4.244;2023-02-13T10:04:59;103624.03;;;10.13;100.00
15794;BME280;7999;51.208;4.244;2023-02-13T10:07:30;103627.38;;;9.74;100.00
15794;BME280;7999;51.208;4.244;2023-02-13T10:10:02;103634.31;;;10.10;100.00
15794;BME280;7999;51.208;4.244;2023-02-13T10:12:41;103626.28;;;10.62;100.00
15794;BME280;7999;51.208;4.244;2023-02-13T10:15:14;103632.81;;;10.15;100.00
15794;BME280;7999;51.208;4.244;2023-02-13T10:17:49;103634.16;;;10.07;100.00
15794;BME280;7999;51.208;4.244;2023-02-13T10:20:23;103638.59;;;10.28;100.00
15794;BME280;7999;51.208;4.244;2023-02-13T10:22:52;103624.91;;;10.32;100.00
15794;BME280;7999;51.208;4.244;2023-02-13T10:25:23;103627.22;;;11.67;100.00
15794;BME280;7999;51.208;4.244;2023-02-13T10:27:52;103629.69;;;11.00;100.00
15794;BME280;7999;51.208;4.244;2023-02-13T10:30:21;103621.06;;;12.08;100.00
15794;BME280;7999;51.208;4.244;2023-02-13T10:32:56;103630.41;;;11.60;100.00
15794;BME280;7999;51.208;4.244;2023-02-13T10:35:35;103627.75;;;11.17;100.00
15794;BME280;7999;51.208;4.244;2023-02-13T10:38:03;103622.72;;;10.60;100.00
15794;BME280;7999;51.208;4.244;2023-02-13T10:40:38;103617.75;;;11.05;100.00
15794;BME280;7999;51.208;4.244;2023-02-13T10:43:06;103624.09;;;11.11;100.00
15794;BME280;7999;51.208;4.244;2023-02-13T10:45:46;103622.81;;;11.43;100.00
15794;BME280;7999;51.208;4.244;2023-02-13T10:48:23;103620.50;;;10.89;100.00
15794;BME280;7999;51.208;4.244;2023-02-13T10:50:54;103609.47;;;11.36;100.00
15794;BME280;7999;51.208;4.244;2023-02-13T10:53:25;103601.13;;;11.44;100.00
15794;BME280;7999;51.208;4.244;2023-02-13T10:56:00;103597.19;;;11.76;100.00
15794;BME280;7999;51.208;4.244;2023-02-13T10:58:35;103600.56;;;11.52;100.00
15794;BME280;7999;51.208;4.244;2023-02-13T11:01:05;103598.53;;;10.42;100.00
15794;BME280;7999;51.208;4.244;2023-02-13T11:03:36;103597.25;;;10.72;100.00
15794;BME280;7999;51.208;4.244;2023-02-13T11:06:04;103594.97;;;10.80;100.00
15794;BME280;7999;51.208;4.244;2023-02-13T11:08:33;103584.75;;;11.47;100.00
15794;BME280;7999;51.208;4.244;2023-02-13T11:11:00;103584.50;;;10.78;100.00
15794;BME280;7999;51.208;4.244;2023-02-13T11:13:28;103577.41;;;10.74;100.00
15794;BME280;7999;51.208;4.244;2023-02-13T11:15:59;103586.44;;;10.63;100.00
15794;BME280;7999;51.208;4.244;2023-02-13T11:18:27;103576.59;;;10.37;100.00
15794;BME280;7999;51.208;4.244;2023-02-13T11:20:59;103578.28;;;9.60;100.00
15794;BME280;7999;51.208;4.244;2023-02-13T11:23:36;103575.06;;;10.21;100.00
15794;BME280;7999;51.208;4.244;2023-02-13T11:26:04;103569.19;;;9.88;100.00
15794;BME280;7999;51.208;4.244;2023-02-13T11:28:34;103564.34;;;9.78;100.00
15794;BME280;7999;51.208;4.244;2023-02-13T11:31:09;103561.38;;;10.07;100.00
15794;BME280;7999;51.208;4.244;2023-02-13T11:33:37;103562.13;;;10.23;100.00
15794;BME280;7999;51.208;4.244;2023-02-13T11:36:06;103555.72;;;10.16;100.00
15794;BME280;7999;51.208;4.244;2023-02-13T11:38:33;103557.19;;;10.29;100.00
15794;BME280;7999;51.208;4.244;2023-02-13T11:41:04;103559.09;;;10.33;100.00
15794;BME280;7999;51.208;4.244;2023-02-13T11:43:33;103563.44;;;10.72;100.00
15794;BME280;7999;51.208;4.244;2023-02-13T11:46:02;103547.94;;;10.35;100.00
15794;BME280;7999;51.208;4.244;2023-02-13T11:48:29;103554.59;;;10.48;100.00
15794;BME280;7999;51.208;4.244;2023-02-13T11:50:56;103550.22;;;10.28;100.00
15794;BME280;7999;51.208;4.244;2023-02-13T11:53:26;103553.81;;;10.50;100.00
15794;BME280;7999;51.208;4.244;2023-02-13T11:56:02;103553.44;;;10.62;100.00
15794;BME280;7999;51.208;4.244;2023-02-13T11:58:29;103547.47;;;10.65;100.00
15794;BME280;7999;51.208;4.244;2023-02-13T12:01:22;103551.78;;;10.64;100.00
15794;BME280;7999;51.208;4.244;2023-02-13T12:03:57;103546.88;;;10.70;100.00
15794;BME280;7999;51.208;4.244;2023-02-13T12:06:26;103544.59;;;10.78;100.00
15794;BME280;7999;51.208;4.244;2023-02-13T12:08:54;103543.31;;;10.68;100.00
15794;BME280;7999;51.208;4.244;2023-02-13T12:11:22;103536.78;;;10.38;100.00
15794;BME280;7999;51.208;4.244;2023-02-13T12:13:50;103531.88;;;10.65;100.00
15794;BME280;7999;51.208;4.244;2023-02-13T12:16:28;103529.50;;;10.69;100.00
15794;BME280;7999;51.208;4.244;2023-02-13T12:18:57;103538.75;;;10.83;100.00
15794;BME280;7999;51.208;4.244;2023-02-13T12:21:29;103532.22;;;10.72;100.00
15794;BME280;7999;51.208;4.244;2023-02-13T12:24:07;103523.94;;;10.62;100.00
15794;BME280;7999;51.208;4.244;2023-02-13T12:26:39;103523.00;;;10.80;100.00
15794;BME280;7999;51.208;4.244;2023-02-13T12:29:20;103520.41;;;11.01;100.00
15794;BME280;7999;51.208;4.244;2023-02-13T12:31:54;103518.44;;;10.54;100.00
15794;BME280;7999;51.208;4.244;2023-02-13T12:34:39;103516.91;;;11.01;100.00
15794;BME280;7999;51.208;4.244;2023-02-13T12:37:15;103520.28;;;10.77;100.00
15794;BME280;7999;51.208;4.244;2023-02-13T12:39:47;103519.22;;;10.72;100.00
15794;BME280;7999;51.208;4.244;2023-02-13T12:42:20;103518.59;;;10.18;100.00
15794;BME280;7999;51.208;4.244;2023-02-13T12:45:11;103515.59;;;10.29;100.00
15794;BME280;7999;51.208;4.244;2023-02-13T12:47:44;103519.41;;;10.37;100.00
15794;BME280;7999;51.208;4.244;2023-02-13T12:50:24;103517.66;;;10.57;100.00
15794;BME280;7999;51.208;4.244;2023-02-13T12:52:58;103516.91;;;10.59;100.00
15794;BME280;7999;51.208;4.244;2023-02-13T12:55:46;103515.97;;;10.38;100.00
15794;BME280;7999;51.208;4.244;2023-02-13T12:58:21;103503.53;;;10.31;100.00
15794;BME280;7999;51.208;4.244;2023-02-13T13:00:54;103506.63;;;10.22;100.00
15794;BME280;7999;51.208;4.244;2023-02-13T13:03:34;103506.34;;;10.35;100.00
15794;BME280;7999;51.208;4.244;2023-02-13T13:06:17;103503.66;;;10.34;100.00
15794;BME280;7999;51.208;4.244;2023-02-13T13:11:38;103487.13;;;10.32;100.00
15794;BME280;7999;51.208;4.244;2023-02-13T13:14:11;103486.19;;;10.12;100.00
15794;BME280;7999;51.208;4.244;2023-02-13T13:16:42;103484.94;;;10.41;100.00
15794;BME280;7999;51.208;4.244;2023-02-13T13:19:19;103490.38;;;10.47;100.00
15794;BME280;7999;51.208;4.244;2023-02-13T13:21:47;103480.53;;;10.40;100.00